South Harpswell, Maine
Current Conditions -  °F | °C
As of 10:53 PM on Saturday 25 Oct 2014 (Local Time) from KIWI Reporting Station
Overcast Overcast  
Wind Chill: 48°   Ceiling: 7500
Heat Index: 48°   Visibility: 10mi
Dew Point: 46°   Wind: 0mph
Humidity: 93%   Direction: NA
Pressure: 29.48"   Gusts: NA
Location:  43.7958°N, 69.9869°W
Report Text: KIWI 260253Z AUTO 00000KT 10SM BKN075 OVC110 09/08 A2948 RMK AO2 SLP982 T00890078 56022
Loading
Personal Weather Stations






























Interactive Weather Map
Tropical Storm Tracking
New forecast layout! Learn more

10-Day Weather Forecast

Advertisements
Track Severe Weather on mobile